createdAt,value
2022-12-05T00:01:44.752Z,13.93
2022-12-05T00:03:48.316Z,12.82
2022-12-05T00:05:51.056Z,14.35
2022-12-05T00:07:53.736Z,14.57
2022-12-05T00:09:56.573Z,13.15
2022-12-05T00:11:59.423Z,13.70
2022-12-05T00:14:02.945Z,13.43
2022-12-05T00:16:10.566Z,13.02
2022-12-05T00:18:13.201Z,13.25
2022-12-05T00:20:15.853Z,14.48
2022-12-05T00:22:18.500Z,13.90
2022-12-05T00:24:21.718Z,14.25
2022-12-05T00:26:24.707Z,14.45
2022-12-05T00:28:27.303Z,14.70
2022-12-05T00:30:29.888Z,15.20
2022-12-05T00:32:33.899Z,13.90
2022-12-05T00:34:36.529Z,14.45
2022-12-05T00:36:39.334Z,15.55
2022-12-05T00:38:42.594Z,14.48
2022-12-05T00:40:45.222Z,14.15
2022-12-05T00:42:52.138Z,14.65
2022-12-05T00:44:55.152Z,14.23
2022-12-05T00:46:57.815Z,15.00
2022-12-05T00:49:03.138Z,14.23
2022-12-05T00:51:08.437Z,15.07
2022-12-05T00:53:11.023Z,14.68
2022-12-05T00:55:13.666Z,15.55
2022-12-05T00:57:16.274Z,14.73
2022-12-05T00:59:20.855Z,14.43
2022-12-05T01:01:25.669Z,13.98
2022-12-05T01:03:28.383Z,14.80
2022-12-05T01:05:35.024Z,14.98
2022-12-05T01:07:37.770Z,15.57
2022-12-05T01:09:40.377Z,15.07
2022-12-05T01:11:44.911Z,14.48
2022-12-05T01:13:48.657Z,15.55
2022-12-05T01:15:52.071Z,14.50
2022-12-05T01:17:54.630Z,15.65
2022-12-05T01:19:57.566Z,16.10
2022-12-05T01:22:02.010Z,15.45
2022-12-05T01:24:04.980Z,15.23
2022-12-05T01:26:09.177Z,15.35
2022-12-05T01:28:12.970Z,15.07
2022-12-05T01:30:15.953Z,14.77
2022-12-05T01:32:19.274Z,14.82
2022-12-05T01:34:22.321Z,14.23
2022-12-05T01:36:26.534Z,15.82
2022-12-05T01:38:30.958Z,15.35
2022-12-05T01:40:35.892Z,16.15
2022-12-05T01:42:39.873Z,16.73
2022-12-05T01:45:02.649Z,16.73
2022-12-05T01:47:05.381Z,14.45
2022-12-05T01:49:11.912Z,14.88
2022-12-05T01:51:14.538Z,15.70
2022-12-05T01:53:17.582Z,14.40
2022-12-05T01:55:21.780Z,15.88
2022-12-05T01:57:25.546Z,15.60
2022-12-05T01:59:31.539Z,16.85
2022-12-05T02:01:34.959Z,16.27
2022-12-05T02:03:39.036Z,14.30
2022-12-05T02:05:42.375Z,16.75
2022-12-05T02:07:47.290Z,16.45
2022-12-05T02:09:52.019Z,15.25
2022-12-05T02:11:59.608Z,15.80
2022-12-05T02:14:17.368Z,15.73
2022-12-05T02:16:29.394Z,14.95
2022-12-05T02:18:43.790Z,15.60
2022-12-05T02:21:04.151Z,15.82
2022-12-05T02:23:26.525Z,15.57
2022-12-05T02:25:54.481Z,14.75
2022-12-05T02:28:22.400Z,15.23
2022-12-05T02:30:27.855Z,15.27
2022-12-05T02:32:42.266Z,14.70
2022-12-05T02:34:53.982Z,16.70
2022-12-05T02:37:03.527Z,16.77
2022-12-05T02:39:13.466Z,15.75
2022-12-05T02:41:22.231Z,14.68
2022-12-05T02:43:30.447Z,14.85
2022-12-05T02:45:39.406Z,15.30
2022-12-05T02:47:45.149Z,14.45
2022-12-05T02:49:49.641Z,14.15
2022-12-05T02:51:57.613Z,13.52
2022-12-05T02:54:03.626Z,14.73
2022-12-05T02:56:08.151Z,15.13
2022-12-05T02:58:18.278Z,15.07
2022-12-05T03:00:21.850Z,14.48
2022-12-05T03:02:28.000Z,13.40
2022-12-05T03:04:32.328Z,14.82
2022-12-05T03:06:38.060Z,13.68
2022-12-05T03:08:46.582Z,13.63
2022-12-05T03:10:52.156Z,13.75
2022-12-05T03:12:59.906Z,13.82
2022-12-05T03:15:07.408Z,15.02
2022-12-05T03:17:14.946Z,12.93
2022-12-05T03:19:24.116Z,14.52
2022-12-05T03:21:32.633Z,14.07
2022-12-05T03:23:39.075Z,14.38
2022-12-05T03:25:51.565Z,14.13
2022-12-05T03:28:03.338Z,13.85
2022-12-05T03:32:15.166Z,13.48
2022-12-05T03:34:30.665Z,15.02
2022-12-05T03:36:38.883Z,12.45
2022-12-05T03:38:49.023Z,12.07
2022-12-05T03:40:58.213Z,13.43
2022-12-05T03:43:09.062Z,13.13
2022-12-05T03:45:16.150Z,14.00
2022-12-05T03:47:25.245Z,13.65
2022-12-05T03:49:34.561Z,13.43
2022-12-05T03:51:44.008Z,13.23
2022-12-05T03:53:51.317Z,12.60
2022-12-05T03:56:00.262Z,13.35
2022-12-05T03:58:08.388Z,13.98
2022-12-05T04:00:13.973Z,13.48
2022-12-05T04:02:23.007Z,15.48
2022-12-05T04:04:32.392Z,14.52
2022-12-05T04:06:37.579Z,13.52
2022-12-05T04:08:43.840Z,14.30
2022-12-05T04:10:50.467Z,13.38
2022-12-05T04:12:56.770Z,13.48
2022-12-05T04:15:02.951Z,12.63
2022-12-05T04:17:09.324Z,13.75
2022-12-05T04:19:17.821Z,13.93
2022-12-05T04:21:41.155Z,13.60
2022-12-05T04:23:47.795Z,14.80
2022-12-05T04:26:01.490Z,14.32
2022-12-05T04:28:21.172Z,14.32
2022-12-05T04:30:26.486Z,13.77
2022-12-05T04:32:34.527Z,13.27
2022-12-05T04:34:39.641Z,13.35
2022-12-05T04:36:48.241Z,13.40
2022-12-05T04:38:56.036Z,13.45
2022-12-05T04:41:01.775Z,13.43
2022-12-05T04:43:05.840Z,13.52
2022-12-05T04:45:12.874Z,13.38
2022-12-05T04:47:18.072Z,11.98
2022-12-05T04:49:24.269Z,13.27
2022-12-05T04:51:30.433Z,12.23
2022-12-05T04:53:35.435Z,13.43
2022-12-05T04:55:42.807Z,13.40
2022-12-05T04:57:53.169Z,12.50
2022-12-05T04:59:56.638Z,13.45
2022-12-05T05:02:05.949Z,13.07
2022-12-05T05:04:12.418Z,13.50
2022-12-05T05:06:15.881Z,11.60
2022-12-05T05:08:20.761Z,11.77
2022-12-05T05:10:32.093Z,12.73
2022-12-05T05:12:34.669Z,14.10
2022-12-05T05:14:37.307Z,14.30
2022-12-05T05:16:41.371Z,13.57
2022-12-05T05:18:43.978Z,15.23
2022-12-05T05:20:46.589Z,14.23
2022-12-05T05:22:49.523Z,13.63
2022-12-05T05:24:52.160Z,14.10
2022-12-05T05:26:57.613Z,14.40
2022-12-05T05:29:01.124Z,15.43
2022-12-05T05:31:04.614Z,14.43
2022-12-05T05:33:07.305Z,13.75
2022-12-05T05:35:11.645Z,13.77
2022-12-05T05:37:14.314Z,13.63
2022-12-05T05:39:16.947Z,14.32
2022-12-05T05:41:20.960Z,14.18
2022-12-05T05:43:27.695Z,13.00
2022-12-05T05:45:30.286Z,13.50
2022-12-05T05:47:32.908Z,14.00
2022-12-05T05:49:35.593Z,13.93
2022-12-05T05:51:38.281Z,14.00
2022-12-05T05:53:41.010Z,14.00
2022-12-05T05:55:43.773Z,13.20
2022-12-05T05:57:46.437Z,14.23
2022-12-05T05:59:50.417Z,13.55
2022-12-05T06:01:53.028Z,14.80
2022-12-05T06:03:55.795Z,14.07
2022-12-05T06:05:59.124Z,12.98
2022-12-05T06:08:01.748Z,13.85
2022-12-05T06:10:05.499Z,13.95
2022-12-05T06:12:08.563Z,15.50
2022-12-05T06:14:11.199Z,14.60
2022-12-05T06:16:17.337Z,14.27
2022-12-05T06:18:19.914Z,15.73
2022-12-05T06:20:22.518Z,16.17
2022-12-05T06:22:25.116Z,14.70
2022-12-05T06:24:27.815Z,14.07
2022-12-05T06:26:30.431Z,15.13
2022-12-05T06:28:33.730Z,14.60
2022-12-05T06:30:36.355Z,14.18
2022-12-05T06:32:40.357Z,14.98
2022-12-05T06:34:42.984Z,14.15
2022-12-05T06:36:45.569Z,14.65
2022-12-05T06:38:48.216Z,14.95
2022-12-05T06:40:50.846Z,15.13
2022-12-05T06:42:53.537Z,15.18
2022-12-05T06:44:56.153Z,16.80
2022-12-05T06:46:58.792Z,15.20
2022-12-05T06:49:03.001Z,14.23
2022-12-05T06:51:06.968Z,13.75
2022-12-05T06:53:09.606Z,12.52
2022-12-05T06:55:12.268Z,13.32
2022-12-05T06:57:15.231Z,13.82
2022-12-05T06:59:17.984Z,13.45
2022-12-05T07:01:41.514Z,13.35
2022-12-05T07:03:44.990Z,13.68
2022-12-05T07:05:49.117Z,14.35
2022-12-05T07:07:52.048Z,13.63
2022-12-05T07:09:54.801Z,13.85
2022-12-05T07:11:57.420Z,13.95
2022-12-05T07:14:00.175Z,15.07
2022-12-05T07:16:04.400Z,14.48
2022-12-05T07:18:07.250Z,14.13
2022-12-05T07:20:12.654Z,13.50
2022-12-05T07:22:16.612Z,14.50
2022-12-05T07:24:19.262Z,13.95
2022-12-05T07:26:27.084Z,13.82
2022-12-05T07:28:29.853Z,13.73
2022-12-05T07:30:32.843Z,12.75
2022-12-05T07:32:35.764Z,14.63
2022-12-05T07:34:39.433Z,13.23
2022-12-05T07:36:42.121Z,13.75
2022-12-05T07:38:46.323Z,13.32
2022-12-05T07:40:48.894Z,12.15
2022-12-05T07:42:53.341Z,13.57
2022-12-05T07:44:55.945Z,12.82
2022-12-05T07:46:58.947Z,12.55
2022-12-05T07:49:01.520Z,12.85
2022-12-05T07:51:06.144Z,12.95
2022-12-05T07:53:08.781Z,12.50
2022-12-05T07:55:12.760Z,13.73
2022-12-05T07:57:15.365Z,11.75
2022-12-05T07:59:17.991Z,13.98
2022-12-05T08:01:25.500Z,12.48
2022-12-05T08:03:28.152Z,11.60
2022-12-05T08:05:30.764Z,11.45
2022-12-05T08:07:33.386Z,11.20
2022-12-05T08:09:36.315Z,12.38
2022-12-05T08:11:40.293Z,11.77
2022-12-05T08:13:43.750Z,11.07
2022-12-05T08:15:46.357Z,11.35
2022-12-05T08:17:48.957Z,11.05
2022-12-05T08:19:51.561Z,11.70
2022-12-05T08:21:55.280Z,11.98
2022-12-05T08:23:58.356Z,11.43
2022-12-05T08:26:05.211Z,11.10
2022-12-05T08:28:09.188Z,10.48
2022-12-05T08:30:11.960Z,10.43
2022-12-05T08:32:14.571Z,10.65
2022-12-05T08:34:19.037Z,10.52
2022-12-05T08:36:21.609Z,9.57
2022-12-05T08:38:24.318Z,11.23
2022-12-05T08:40:27.111Z,11.77
2022-12-05T08:42:29.701Z,10.60
2022-12-05T08:44:33.656Z,11.40
2022-12-05T08:46:38.503Z,11.85
2022-12-05T08:48:41.543Z,11.73
2022-12-05T08:50:44.161Z,11.70
2022-12-05T08:52:46.970Z,10.38
2022-12-05T08:54:49.560Z,11.13
2022-12-05T08:56:52.964Z,10.25
2022-12-05T08:59:02.914Z,11.20
2022-12-05T09:01:11.947Z,11.25
2022-12-05T09:03:14.777Z,10.20
2022-12-05T09:05:27.515Z,10.27
2022-12-05T09:07:31.625Z,10.57
2022-12-05T09:09:34.831Z,11.07
2022-12-05T09:11:40.807Z,12.05
2022-12-05T09:13:43.972Z,13.00
2022-12-05T09:15:46.612Z,13.43
2022-12-05T09:17:50.608Z,11.60
2022-12-05T09:19:53.258Z,12.45
2022-12-05T09:21:57.053Z,11.40
2022-12-05T09:24:00.735Z,11.60
2022-12-05T09:26:03.788Z,11.50
2022-12-05T09:28:06.360Z,12.43
2022-12-05T09:30:10.548Z,12.20
2022-12-05T09:32:13.262Z,10.80
2022-12-05T09:34:18.329Z,10.60
2022-12-05T09:36:23.099Z,11.38
2022-12-05T09:38:26.049Z,10.50
2022-12-05T09:40:28.768Z,11.48
2022-12-05T09:42:39.546Z,11.75
2022-12-05T09:45:05.875Z,10.65
2022-12-05T09:47:16.073Z,10.95
2022-12-05T09:49:20.440Z,11.10
2022-12-05T09:51:23.157Z,10.70
2022-12-05T09:53:30.680Z,10.45
2022-12-05T09:55:40.850Z,9.77
2022-12-05T09:57:48.397Z,10.38
2022-12-05T09:59:51.006Z,10.23
2022-12-05T10:02:00.947Z,9.93
2022-12-05T10:04:19.014Z,9.93
2022-12-05T10:06:27.299Z,10.70
2022-12-05T10:08:35.317Z,10.90
2022-12-05T10:10:52.538Z,10.65
2022-12-05T10:13:09.562Z,11.52
2022-12-05T10:15:17.778Z,11.63
2022-12-05T10:17:27.674Z,12.60
2022-12-05T10:19:35.242Z,11.23
2022-12-05T10:21:45.409Z,11.15
2022-12-05T10:23:58.273Z,12.82
2022-12-05T10:26:05.725Z,12.25
2022-12-05T10:28:16.583Z,12.02
2022-12-05T10:30:21.557Z,11.60
2022-12-05T10:32:29.402Z,12.13
2022-12-05T10:34:34.862Z,9.65
2022-12-05T10:36:38.778Z,9.95
2022-12-05T10:38:42.970Z,11.00
2022-12-05T10:40:50.823Z,10.73
2022-12-05T10:42:53.569Z,9.77
2022-12-05T10:44:59.383Z,10.27
2022-12-05T10:47:02.468Z,10.45
2022-12-05T10:49:11.758Z,10.35
2022-12-05T10:51:16.062Z,9.88
2022-12-05T10:53:24.020Z,10.10
2022-12-05T10:55:32.253Z,10.13
2022-12-05T10:57:34.848Z,10.43
2022-12-05T10:59:47.280Z,9.43
2022-12-05T11:01:53.481Z,9.80
2022-12-05T11:03:59.448Z,9.38
2022-12-05T11:06:04.150Z,9.25
2022-12-05T11:08:06.795Z,8.50
2022-12-05T11:10:26.598Z,8.75
2022-12-05T11:12:37.218Z,8.57
2022-12-05T11:14:39.840Z,7.65
2022-12-05T11:16:42.566Z,7.63
2022-12-05T11:18:48.611Z,7.90
2022-12-05T11:20:52.042Z,8.00
2022-12-05T11:22:57.012Z,7.72
2022-12-05T11:24:59.948Z,8.10
2022-12-05T11:27:22.541Z,8.15
2022-12-05T11:29:35.149Z,8.50
2022-12-05T11:31:37.785Z,8.80
2022-12-05T11:33:40.651Z,8.18
2022-12-05T11:35:43.741Z,8.40
2022-12-05T11:37:58.047Z,8.00
2022-12-05T11:40:02.724Z,8.38
2022-12-05T11:42:20.607Z,8.18
2022-12-05T11:44:57.216Z,7.72
2022-12-05T11:47:10.942Z,7.97
2022-12-05T11:49:30.007Z,8.77
2022-12-05T11:51:40.087Z,8.50
2022-12-05T11:54:13.362Z,7.82
2022-12-05T11:56:29.718Z,7.80
2022-12-05T11:58:57.368Z,7.07
2022-12-05T12:01:10.506Z,8.10
2022-12-05T12:03:54.707Z,6.85
2022-12-05T12:06:12.789Z,7.20
2022-12-05T12:08:24.037Z,6.50
2022-12-05T12:10:34.302Z,6.78
2022-12-05T12:12:51.196Z,5.63
2022-12-05T12:15:03.739Z,6.22
2022-12-05T12:17:17.289Z,5.95
2022-12-05T12:19:40.130Z,6.25
2022-12-05T12:22:03.558Z,5.65
2022-12-05T12:24:17.094Z,5.50
2022-12-05T12:26:29.314Z,5.82
2022-12-05T12:28:42.314Z,5.13
2022-12-05T12:30:56.936Z,5.50
2022-12-05T12:33:08.196Z,5.25
2022-12-05T12:35:30.002Z,5.45
2022-12-05T12:37:44.039Z,4.72
2022-12-05T12:39:53.487Z,4.75
2022-12-05T12:42:10.389Z,5.35
2022-12-05T12:44:33.521Z,5.07
2022-12-05T12:46:48.915Z,4.55
2022-12-05T12:49:04.820Z,4.63
2022-12-05T12:51:14.525Z,4.72
2022-12-05T12:53:56.300Z,4.90
2022-12-05T12:56:05.319Z,4.70
2022-12-05T12:58:18.057Z,5.28
2022-12-05T13:00:28.812Z,5.30
2022-12-05T13:02:41.184Z,4.82
2022-12-05T13:04:50.866Z,4.78
2022-12-05T13:06:57.437Z,4.82
2022-12-05T13:09:04.514Z,4.93
2022-12-05T13:11:11.621Z,4.72
2022-12-05T13:13:17.185Z,4.22
2022-12-05T13:15:23.485Z,4.93
2022-12-05T13:17:26.444Z,4.45
2022-12-05T13:19:37.271Z,4.40
2022-12-05T13:21:41.462Z,4.55
2022-12-05T13:23:47.602Z,4.40
2022-12-05T13:25:52.573Z,5.72
2022-12-05T13:27:58.321Z,5.47
2022-12-05T13:30:06.981Z,5.28
2022-12-05T13:32:30.323Z,5.43
2022-12-05T13:34:53.872Z,5.00
2022-12-05T13:37:17.396Z,4.88
2022-12-05T13:39:40.658Z,4.50
2022-12-05T13:42:03.359Z,3.95
2022-12-05T13:44:12.470Z,4.18
2022-12-05T13:46:27.310Z,4.43
2022-12-05T13:48:33.959Z,4.30
2022-12-05T13:50:43.225Z,4.43
2022-12-05T13:52:49.885Z,4.03
2022-12-05T13:54:59.237Z,4.32
2022-12-05T13:57:03.710Z,3.58
2022-12-05T13:59:06.302Z,3.30
2022-12-05T14:01:47.673Z,3.67
2022-12-05T14:03:58.293Z,4.25
2022-12-05T14:06:01.114Z,4.65
2022-12-05T14:08:46.810Z,4.70
2022-12-05T14:11:12.198Z,4.57
2022-12-05T14:13:42.331Z,4.20
2022-12-05T14:15:46.446Z,4.13
2022-12-05T14:17:50.152Z,4.70
2022-12-05T14:20:06.602Z,5.20
2022-12-05T14:22:35.218Z,5.38
2022-12-05T14:24:46.333Z,5.03
2022-12-05T14:27:07.231Z,5.93
2022-12-05T14:29:26.151Z,5.50
2022-12-05T14:31:43.696Z,4.72
2022-12-05T14:33:46.505Z,4.75
2022-12-05T14:35:51.469Z,5.30
2022-12-05T14:37:56.593Z,4.70
2022-12-05T14:40:02.995Z,4.43
2022-12-05T14:42:24.869Z,4.32
2022-12-05T14:44:32.128Z,4.40
2022-12-05T14:46:35.336Z,3.70
2022-12-05T14:48:47.325Z,3.38
2022-12-05T14:50:52.719Z,4.15
2022-12-05T14:53:22.705Z,4.15
2022-12-05T14:55:27.255Z,3.70
2022-12-05T14:57:32.577Z,3.53
2022-12-05T14:59:45.137Z,3.47
2022-12-05T15:01:53.134Z,3.10
2022-12-05T15:04:09.179Z,3.00
2022-12-05T15:06:16.459Z,2.65
2022-12-05T15:08:21.333Z,2.42
2022-12-05T15:10:29.419Z,2.85
2022-12-05T15:12:39.958Z,2.83
2022-12-05T15:14:48.958Z,2.85
2022-12-05T15:16:55.031Z,2.95
2022-12-05T15:19:03.128Z,2.45
2022-12-05T15:21:10.501Z,2.60
2022-12-05T15:23:42.178Z,2.90
2022-12-05T15:25:47.100Z,2.42
2022-12-05T15:27:55.451Z,2.70
2022-12-05T15:29:58.947Z,2.55
2022-12-05T15:32:03.648Z,3.10
2022-12-05T15:34:12.341Z,2.90
2022-12-05T15:36:15.133Z,3.20
2022-12-05T15:38:27.592Z,2.88
2022-12-05T15:40:37.409Z,3.00
2022-12-05T15:42:45.688Z,3.10
2022-12-05T15:44:48.411Z,2.90
2022-12-05T15:46:54.545Z,3.10
2022-12-05T15:49:00.490Z,3.40
2022-12-05T15:51:04.022Z,3.20
2022-12-05T15:53:14.563Z,3.13
2022-12-05T15:55:25.941Z,2.97
2022-12-05T15:57:37.994Z,3.00
2022-12-05T15:59:46.710Z,2.90
2022-12-05T16:01:53.975Z,3.03
2022-12-05T16:03:59.550Z,3.15
2022-12-05T16:06:10.640Z,3.17
2022-12-05T16:08:13.589Z,3.20
2022-12-05T16:10:17.678Z,3.75
2022-12-05T16:12:27.015Z,4.40
2022-12-05T16:14:59.055Z,3.42
2022-12-05T16:17:02.659Z,3.80
2022-12-05T16:19:08.074Z,3.35
2022-12-05T16:21:37.837Z,3.78
2022-12-05T16:23:43.973Z,3.65
2022-12-05T16:25:46.587Z,3.80
2022-12-05T16:27:58.310Z,3.58
2022-12-05T16:30:19.163Z,3.78
2022-12-05T16:32:26.279Z,3.60
2022-12-05T16:34:34.300Z,3.55
2022-12-05T16:36:36.937Z,3.97
2022-12-05T16:38:40.889Z,3.88
2022-12-05T16:40:53.969Z,4.80
2022-12-05T16:43:02.976Z,5.68
2022-12-05T16:45:06.893Z,6.60
2022-12-05T16:47:23.574Z,6.40
2022-12-05T16:49:36.410Z,5.38
2022-12-05T16:51:43.156Z,5.57
2022-12-05T16:53:47.295Z,5.57
2022-12-05T16:55:50.324Z,4.78
2022-12-05T16:57:52.926Z,4.57
2022-12-05T16:59:55.594Z,5.20
2022-12-05T17:01:58.256Z,4.95
2022-12-05T17:04:00.992Z,5.38
2022-12-05T17:06:05.512Z,5.18
2022-12-05T17:08:08.421Z,5.25
2022-12-05T17:10:11.251Z,5.63
2022-12-05T17:12:19.688Z,7.55
2022-12-05T17:14:22.649Z,5.93
2022-12-05T17:16:26.617Z,5.47
2022-12-05T17:18:31.799Z,6.15
2022-12-05T17:20:35.534Z,6.05
2022-12-05T17:22:39.553Z,6.40
2022-12-05T17:24:42.173Z,6.32
2022-12-05T17:26:45.409Z,7.07
2022-12-05T17:28:48.862Z,6.88
2022-12-05T17:30:52.031Z,6.63
2022-12-05T17:32:55.071Z,6.53
2022-12-05T17:35:00.099Z,6.80
2022-12-05T17:37:04.945Z,6.32
2022-12-05T17:39:09.293Z,6.05
2022-12-05T17:41:16.752Z,5.32
2022-12-05T17:43:24.771Z,5.18
2022-12-05T17:45:27.835Z,5.55
2022-12-05T17:47:30.469Z,5.55
2022-12-05T17:49:33.095Z,4.93
2022-12-05T17:51:48.105Z,4.68
2022-12-05T17:53:58.301Z,5.88
2022-12-05T17:56:02.273Z,6.78
2022-12-05T17:58:04.858Z,6.93
2022-12-05T18:00:08.925Z,8.30
2022-12-05T18:02:12.442Z,7.40
2022-12-05T18:04:17.691Z,6.88
2022-12-05T18:06:26.521Z,6.40
2022-12-05T18:08:29.161Z,5.63
2022-12-05T18:10:31.737Z,6.10
2022-12-05T18:12:35.769Z,5.75
2022-12-05T18:14:39.496Z,5.00
2022-12-05T18:16:42.182Z,5.55
2022-12-05T18:18:44.915Z,4.97
2022-12-05T18:20:47.512Z,5.25
2022-12-05T18:22:51.176Z,5.07
2022-12-05T18:24:54.222Z,5.22
2022-12-05T18:26:56.871Z,5.97
2022-12-05T18:29:00.861Z,5.88
2022-12-05T18:31:08.050Z,6.65
2022-12-05T18:33:10.677Z,6.88
2022-12-05T18:35:13.425Z,7.78
2022-12-05T18:37:18.309Z,7.88
2022-12-05T18:39:20.937Z,7.18
2022-12-05T18:41:24.281Z,6.63
2022-12-05T18:43:26.864Z,7.30
2022-12-05T18:45:30.978Z,6.88
2022-12-05T18:47:33.593Z,6.85
2022-12-05T18:49:36.371Z,6.50
2022-12-05T18:51:39.368Z,6.43
2022-12-05T18:53:43.004Z,7.50
2022-12-05T18:56:13.023Z,7.28
2022-12-05T18:58:08.885Z,10.00
2022-12-05T19:00:12.879Z,10.45
2022-12-05T19:02:16.880Z,10.25
2022-12-05T19:04:21.586Z,12.32
2022-12-05T19:06:26.731Z,12.82
2022-12-05T19:08:29.405Z,12.48
2022-12-05T19:10:32.003Z,11.20
2022-12-05T19:12:34.583Z,18.27
2022-12-05T19:14:37.893Z,19.95
2022-12-05T19:16:40.745Z,15.25
2022-12-05T19:18:45.061Z,12.65
2022-12-05T19:20:52.152Z,13.80
2022-12-05T19:23:00.553Z,13.05
2022-12-05T19:25:03.691Z,13.73
2022-12-05T19:27:06.279Z,13.48
2022-12-05T19:29:09.439Z,14.55
2022-12-05T19:31:14.278Z,14.52
2022-12-05T19:33:17.015Z,15.45
2022-12-05T19:35:21.064Z,16.08
2022-12-05T19:37:23.696Z,15.88
2022-12-05T19:39:27.037Z,14.50
2022-12-05T19:41:31.263Z,14.65
2022-12-05T19:43:34.861Z,13.93
2022-12-05T19:45:39.476Z,13.85
2022-12-05T19:47:42.073Z,14.20
2022-12-05T19:49:44.707Z,13.63
2022-12-05T19:51:48.712Z,13.90
2022-12-05T19:53:51.425Z,14.77
2022-12-05T19:55:54.040Z,12.80
2022-12-05T19:57:56.678Z,12.70
2022-12-05T19:59:59.575Z,12.60
2022-12-05T20:02:02.470Z,12.90
2022-12-05T20:04:07.111Z,13.05
2022-12-05T20:06:12.027Z,13.35
2022-12-05T20:08:16.069Z,13.98
2022-12-05T20:10:19.008Z,13.18
2022-12-05T20:12:21.643Z,12.98
2022-12-05T20:14:25.657Z,12.27
2022-12-05T20:16:29.843Z,11.18
2022-12-05T20:18:33.547Z,10.75
2022-12-05T20:20:36.249Z,8.48
2022-12-05T20:22:38.851Z,8.85
2022-12-05T20:24:42.833Z,9.00
2022-12-05T20:26:48.643Z,9.05
2022-12-05T20:28:51.687Z,7.70
2022-12-05T20:30:54.418Z,8.02
2022-12-05T20:32:57.071Z,8.07
2022-12-05T20:34:59.763Z,7.80
2022-12-05T20:37:02.371Z,9.07
2022-12-05T20:39:06.694Z,8.68
2022-12-05T20:41:12.137Z,8.55
2022-12-05T20:43:15.971Z,8.50
2022-12-05T20:45:18.730Z,8.10
2022-12-05T20:47:21.315Z,8.35
2022-12-05T20:49:24.179Z,8.30
2022-12-05T20:51:28.381Z,8.57
2022-12-05T20:53:33.680Z,8.32
2022-12-05T20:55:36.507Z,9.68
2022-12-05T20:57:40.555Z,9.52
2022-12-05T20:59:43.279Z,9.85
2022-12-05T21:01:47.433Z,9.95
2022-12-05T21:03:51.617Z,10.32
2022-12-05T21:05:54.445Z,10.68
2022-12-05T21:07:57.114Z,9.95
2022-12-05T21:10:04.716Z,10.63
2022-12-05T21:12:10.603Z,9.88
2022-12-05T21:14:14.846Z,10.68
2022-12-05T21:16:20.369Z,11.30
2022-12-05T21:18:23.075Z,10.63
2022-12-05T21:20:25.657Z,11.68
2022-12-05T21:22:28.291Z,10.20
2022-12-05T21:24:30.953Z,10.70
2022-12-05T21:26:35.868Z,11.48
2022-12-05T21:28:38.621Z,9.77
2022-12-05T21:30:42.617Z,9.60
2022-12-05T21:32:45.414Z,9.70
2022-12-05T21:34:48.218Z,9.38
2022-12-05T21:36:50.984Z,10.13
2022-12-05T21:38:56.323Z,9.10
2022-12-05T21:40:59.811Z,9.32
2022-12-05T21:43:02.481Z,9.60
2022-12-05T21:45:05.726Z,8.48
2022-12-05T21:47:09.694Z,7.90
2022-12-05T21:49:12.376Z,9.70
2022-12-05T21:51:14.975Z,8.75
2022-12-05T21:53:18.262Z,8.05
2022-12-05T21:55:20.899Z,9.07
2022-12-05T21:57:23.487Z,7.78
2022-12-05T21:59:27.087Z,8.40
2022-12-05T22:01:30.032Z,8.57
2022-12-05T22:03:34.389Z,8.18
2022-12-05T22:05:36.979Z,8.30
2022-12-05T22:07:39.715Z,8.40
2022-12-05T22:09:42.372Z,8.02
2022-12-05T22:11:45.159Z,9.80
2022-12-05T22:13:48.919Z,8.35
2022-12-05T22:15:51.590Z,9.00
2022-12-05T22:17:54.200Z,9.13
2022-12-05T22:19:58.600Z,11.80
2022-12-05T22:22:01.443Z,13.02
2022-12-05T22:24:04.076Z,14.95
2022-12-05T22:26:08.359Z,15.10
2022-12-05T22:28:10.925Z,12.65
2022-12-05T22:30:14.156Z,12.15
2022-12-05T22:32:16.787Z,11.52
2022-12-05T22:34:19.476Z,12.95
2022-12-05T22:36:24.214Z,11.48
2022-12-05T22:38:28.431Z,10.90
2022-12-05T22:40:31.048Z,10.50
2022-12-05T22:42:33.662Z,10.00
2022-12-05T22:44:36.277Z,9.80
2022-12-05T22:46:39.019Z,9.57
2022-12-05T22:48:42.044Z,9.25
2022-12-05T22:50:48.226Z,8.82
2022-12-05T22:52:52.203Z,9.02
2022-12-05T22:54:54.796Z,8.48
2022-12-05T22:56:57.397Z,8.18
2022-12-05T22:59:01.374Z,9.13
2022-12-05T23:01:12.427Z,8.60
2022-12-05T23:03:15.376Z,9.02
2022-12-05T23:05:18.112Z,8.98
2022-12-05T23:07:20.802Z,8.95
2022-12-05T23:09:25.046Z,9.82
2022-12-05T23:11:29.660Z,9.23
2022-12-05T23:13:33.788Z,9.80
2022-12-05T23:15:38.939Z,9.23
2022-12-05T23:17:42.949Z,8.52
2022-12-05T23:19:45.623Z,9.30
2022-12-05T23:21:48.296Z,8.60
2022-12-05T23:23:52.807Z,9.95
2022-12-05T23:25:58.527Z,9.48
2022-12-05T23:28:01.245Z,10.02
2022-12-05T23:30:04.132Z,9.85
2022-12-05T23:32:06.865Z,9.18
2022-12-05T23:34:09.950Z,9.68
2022-12-05T23:36:13.629Z,10.15
2022-12-05T23:38:16.313Z,9.40
2022-12-05T23:40:19.343Z,8.65
2022-12-05T23:42:23.792Z,9.77
2022-12-05T23:44:26.496Z,9.43
2022-12-05T23:46:29.749Z,9.55
2022-12-05T23:48:33.367Z,9.20
2022-12-05T23:50:36.044Z,10.02
2022-12-05T23:52:38.912Z,9.43
2022-12-05T23:54:43.931Z,10.32
2022-12-05T23:56:46.887Z,9.40
2022-12-05T23:58:51.064Z,10.32
